createdAt,value
2017-10-12T00:00:37.402Z,9.50
2017-10-12T00:03:05.123Z,9.50
2017-10-12T00:05:32.815Z,9.60
2017-10-12T00:08:00.947Z,9.60
2017-10-12T00:10:28.670Z,9.60
2017-10-12T00:12:56.311Z,9.70
2017-10-12T00:15:23.980Z,9.60
2017-10-12T00:17:51.939Z,9.70
2017-10-12T00:20:19.617Z,9.70
2017-10-12T00:22:47.274Z,9.70
2017-10-12T00:25:15.072Z,9.60
2017-10-12T00:27:42.819Z,9.60
2017-10-12T00:30:10.511Z,9.60
2017-10-12T00:32:38.243Z,9.60
2017-10-12T00:35:06.370Z,9.60
2017-10-12T00:37:34.113Z,9.60
2017-10-12T00:40:01.848Z,9.60
2017-10-12T00:42:29.609Z,9.50
2017-10-12T00:44:57.360Z,9.50
2017-10-12T00:47:25.071Z,9.50
2017-10-12T00:49:52.767Z,9.50
2017-10-12T00:52:20.847Z,9.40
2017-10-12T00:54:48.682Z,9.40
2017-10-12T00:57:16.813Z,9.30
2017-10-12T00:59:44.502Z,9.30
2017-10-12T01:02:12.409Z,9.30
2017-10-12T01:04:40.115Z,9.40
2017-10-12T01:07:07.827Z,9.40
2017-10-12T01:09:36.367Z,9.40
2017-10-12T01:12:04.144Z,9.40
2017-10-12T01:14:32.292Z,9.30
2017-10-12T01:17:00.471Z,9.30
2017-10-12T01:19:28.281Z,9.30
2017-10-12T01:21:56.031Z,9.30
2017-10-12T01:24:23.813Z,9.30
2017-10-12T01:26:51.568Z,9.20
2017-10-12T01:29:19.296Z,9.30
2017-10-12T01:31:47.075Z,9.30
2017-10-12T01:34:14.803Z,9.40
2017-10-12T01:36:42.614Z,9.40
2017-10-12T01:39:10.464Z,9.30
2017-10-12T01:41:38.380Z,9.30
2017-10-12T01:44:06.162Z,9.20
2017-10-12T01:46:34.333Z,9.20
2017-10-12T01:49:02.159Z,9.20
2017-10-12T01:51:29.927Z,9.20
2017-10-12T01:53:57.665Z,9.30
2017-10-12T01:56:25.351Z,9.20
2017-10-12T01:58:53.017Z,9.20
2017-10-12T02:01:20.784Z,9.20
2017-10-12T02:03:48.554Z,9.10
2017-10-12T02:06:16.307Z,9.00
2017-10-12T02:08:44.149Z,9.00
2017-10-12T02:11:11.851Z,8.90
2017-10-12T02:13:39.524Z,8.90
2017-10-12T02:16:07.288Z,8.90
2017-10-12T02:18:34.987Z,8.90
2017-10-12T02:21:02.785Z,9.00
2017-10-12T02:23:30.677Z,8.90
2017-10-12T02:25:58.382Z,8.90
2017-10-12T02:28:26.129Z,8.90
2017-10-12T02:30:53.915Z,8.90
2017-10-12T02:33:21.807Z,8.90
2017-10-12T02:35:49.482Z,8.90
2017-10-12T02:38:17.191Z,8.90
2017-10-12T02:40:44.850Z,8.90
2017-10-12T02:43:12.612Z,8.90
2017-10-12T02:45:40.319Z,8.90
2017-10-12T02:48:08.107Z,8.90
2017-10-12T02:50:35.828Z,8.90
2017-10-12T02:53:03.656Z,8.90
2017-10-12T02:55:31.375Z,8.90
2017-10-12T02:57:59.432Z,8.80
2017-10-12T03:00:27.214Z,8.80
2017-10-12T03:02:54.854Z,8.60
2017-10-12T03:05:22.548Z,8.60
2017-10-12T03:07:50.351Z,8.60
2017-10-12T03:10:18.054Z,8.50
2017-10-12T03:12:46.197Z,8.60
2017-10-12T03:15:14.046Z,8.60
2017-10-12T03:17:41.778Z,8.60
2017-10-12T03:20:09.643Z,8.70
2017-10-12T03:22:37.434Z,8.60
2017-10-12T03:25:05.201Z,8.70
2017-10-12T03:27:32.949Z,8.70
2017-10-12T03:30:00.720Z,8.60
2017-10-12T03:32:28.483Z,8.60
2017-10-12T03:34:57.056Z,8.50
2017-10-12T03:37:24.796Z,8.50
2017-10-12T03:39:52.544Z,8.50
2017-10-12T03:42:20.292Z,8.50
2017-10-12T03:44:48.040Z,8.60
2017-10-12T03:47:15.786Z,8.60
2017-10-12T03:49:43.533Z,8.70
2017-10-12T03:52:11.262Z,8.70
2017-10-12T03:54:39.028Z,8.80
2017-10-12T03:57:06.775Z,8.80
2017-10-12T03:59:34.542Z,8.80
2017-10-12T04:02:02.626Z,8.80
2017-10-12T04:04:30.332Z,8.80
2017-10-12T04:06:58.074Z,8.90
2017-10-12T04:09:25.723Z,8.80
2017-10-12T04:11:53.465Z,8.80
2017-10-12T04:14:21.187Z,8.80
2017-10-12T04:16:48.885Z,8.80
2017-10-12T04:19:16.923Z,8.70
2017-10-12T04:21:44.636Z,8.70
2017-10-12T04:24:12.304Z,8.70
2017-10-12T04:26:40.007Z,8.70
2017-10-12T04:29:07.798Z,8.70
2017-10-12T04:31:35.506Z,8.70
2017-10-12T04:34:03.230Z,8.70
2017-10-12T04:36:31.003Z,8.70
2017-10-12T04:38:58.688Z,8.80
2017-10-12T04:41:26.334Z,8.90
2017-10-12T04:43:54.182Z,8.90
2017-10-12T04:46:21.856Z,8.90
2017-10-12T04:48:49.985Z,8.90
2017-10-12T04:51:17.731Z,8.90
2017-10-12T04:53:45.478Z,8.90
2017-10-12T04:56:13.225Z,8.90
2017-10-12T04:58:40.932Z,9.00
2017-10-12T05:01:08.621Z,9.00
2017-10-12T05:03:36.359Z,9.00
2017-10-12T05:06:04.129Z,9.00
2017-10-12T05:08:32.240Z,9.10
2017-10-12T05:11:00.016Z,9.10
2017-10-12T05:13:27.766Z,9.10
2017-10-12T05:15:55.513Z,9.10
2017-10-12T05:18:23.260Z,9.10
2017-10-12T05:20:50.994Z,9.10
2017-10-12T05:23:18.652Z,9.20
2017-10-12T05:25:46.292Z,9.20
2017-10-12T05:28:14.019Z,9.20
2017-10-12T05:30:41.791Z,9.20
2017-10-12T05:33:09.542Z,9.10
2017-10-12T05:35:37.311Z,9.10
2017-10-12T05:38:05.422Z,9.10
2017-10-12T05:40:33.226Z,9.10
2017-10-12T05:43:01.113Z,9.00
2017-10-12T05:45:28.789Z,9.00
2017-10-12T05:47:56.466Z,9.00
2017-10-12T05:50:24.694Z,9.10
2017-10-12T05:52:52.366Z,9.10
2017-10-12T05:55:20.466Z,9.10
2017-10-12T05:57:48.239Z,9.10
2017-10-12T06:00:16.057Z,9.10
2017-10-12T06:02:43.736Z,9.10
2017-10-12T06:05:11.586Z,9.10
2017-10-12T06:07:39.334Z,9.10
2017-10-12T06:10:07.118Z,9.10
2017-10-12T06:12:34.929Z,9.20
2017-10-12T06:15:02.707Z,9.30
2017-10-12T06:17:30.511Z,9.50
2017-10-12T06:19:58.383Z,9.80
2017-10-12T06:22:26.062Z,10.00
2017-10-12T06:24:53.731Z,10.30
2017-10-12T06:27:21.458Z,10.50
2017-10-12T06:29:49.272Z,10.70
2017-10-12T06:32:17.359Z,11.00
2017-10-12T06:34:45.171Z,11.00
2017-10-12T06:37:12.917Z,11.10
2017-10-12T06:39:40.614Z,11.30
2017-10-12T06:42:08.418Z,11.40
2017-10-12T06:44:36.162Z,11.60
2017-10-12T06:47:03.956Z,11.70
2017-10-12T06:49:31.808Z,11.80
2017-10-12T06:51:59.507Z,11.90
2017-10-12T06:54:27.254Z,12.00
2017-10-12T06:56:54.995Z,12.10
2017-10-12T06:59:22.747Z,12.20
2017-10-12T07:01:50.468Z,12.40
2017-10-12T07:04:18.218Z,12.70
2017-10-12T07:06:45.885Z,12.90
2017-10-12T07:09:13.551Z,13.10
2017-10-12T07:11:41.792Z,13.70
2017-10-12T07:14:09.466Z,13.70
2017-10-12T07:16:37.592Z,14.10
2017-10-12T07:19:05.385Z,14.10
2017-10-12T07:21:33.163Z,14.20
2017-10-12T07:24:00.933Z,14.40
2017-10-12T07:26:28.670Z,14.60
2017-10-12T07:28:56.433Z,14.70
2017-10-12T07:31:24.112Z,14.80
2017-10-12T07:33:52.276Z,15.10
2017-10-12T07:36:19.978Z,15.10
2017-10-12T07:38:47.729Z,15.30
2017-10-12T07:41:15.443Z,15.40
2017-10-12T07:43:43.120Z,15.60
2017-10-12T07:46:10.869Z,15.70
2017-10-12T07:48:38.612Z,15.80
2017-10-12T07:51:06.362Z,15.90
2017-10-12T07:53:34.068Z,16.10
2017-10-12T07:56:01.883Z,16.20
2017-10-12T07:58:29.994Z,16.50
2017-10-12T08:00:57.682Z,16.50
2017-10-12T08:03:25.843Z,16.90
2017-10-12T08:05:53.981Z,16.80
2017-10-12T08:08:21.687Z,16.80
2017-10-12T08:10:49.437Z,16.90
2017-10-12T08:13:17.217Z,17.00
2017-10-12T08:15:44.964Z,17.10
2017-10-12T08:18:12.814Z,17.30
2017-10-12T08:20:40.563Z,17.50
2017-10-12T08:23:08.308Z,17.70
2017-10-12T08:25:36.126Z,17.60
2017-10-12T08:28:03.861Z,17.50
2017-10-12T08:30:31.603Z,17.70
2017-10-12T08:32:59.466Z,17.90
2017-10-12T08:35:27.119Z,18.10
2017-10-12T08:37:54.896Z,18.40
2017-10-12T08:40:22.747Z,18.60
2017-10-12T08:42:50.422Z,18.70
2017-10-12T08:45:18.107Z,18.50
2017-10-12T08:47:45.884Z,18.20
2017-10-12T08:50:13.566Z,18.00
2017-10-12T08:52:41.614Z,18.10
2017-10-12T08:55:09.536Z,18.10
2017-10-12T08:57:37.235Z,18.20
2017-10-12T09:00:04.959Z,18.30
2017-10-12T09:02:33.123Z,18.40
2017-10-12T09:05:00.851Z,18.40
2017-10-12T09:07:28.582Z,18.50
2017-10-12T09:09:56.329Z,18.70
2017-10-12T09:12:24.077Z,18.80
2017-10-12T09:14:51.927Z,18.90
2017-10-12T09:17:19.652Z,19.10
2017-10-12T09:19:47.318Z,19.00
2017-10-12T09:22:14.995Z,19.00
2017-10-12T09:24:43.134Z,18.70
2017-10-12T09:27:10.885Z,18.70
2017-10-12T09:29:38.598Z,18.60
2017-10-12T09:32:06.507Z,18.40
2017-10-12T09:34:34.274Z,18.20
2017-10-12T09:37:02.049Z,18.10
2017-10-12T09:39:29.842Z,18.00
2017-10-12T09:41:58.171Z,17.90
2017-10-12T09:44:26.022Z,17.90
2017-10-12T09:46:53.909Z,18.10
2017-10-12T09:49:21.721Z,18.10
2017-10-12T09:51:49.891Z,18.10
2017-10-12T09:54:17.839Z,18.30
2017-10-12T09:56:45.556Z,18.40
2017-10-12T09:59:13.275Z,18.60
2017-10-12T10:01:41.022Z,18.70
2017-10-12T10:04:08.748Z,18.70
2017-10-12T10:06:36.843Z,18.40
2017-10-12T10:09:04.825Z,18.40
2017-10-12T10:11:32.551Z,18.40
2017-10-12T10:14:00.261Z,18.40
2017-10-12T10:16:28.105Z,18.40
2017-10-12T10:18:56.170Z,18.40
2017-10-12T10:21:23.874Z,18.40
2017-10-12T10:23:51.731Z,18.60
2017-10-12T10:26:19.879Z,19.40
2017-10-12T10:28:47.612Z,19.40
2017-10-12T10:31:15.424Z,19.30
2017-10-12T10:33:43.123Z,19.10
2017-10-12T10:36:10.866Z,18.80
2017-10-12T10:38:38.702Z,18.60
2017-10-12T10:41:06.389Z,18.50
2017-10-12T10:43:34.516Z,18.20
2017-10-12T10:46:02.272Z,18.20
2017-10-12T10:48:30.360Z,18.20
2017-10-12T10:50:58.325Z,18.20
2017-10-12T10:53:26.124Z,18.40
2017-10-12T10:55:53.803Z,18.60
2017-10-12T10:58:22.028Z,18.70
2017-10-12T11:00:49.879Z,18.70
2017-10-12T11:03:17.625Z,18.90
2017-10-12T11:05:45.372Z,18.90
2017-10-12T11:08:13.063Z,18.70
2017-10-12T11:10:40.739Z,18.50
2017-10-12T11:13:08.396Z,18.20
2017-10-12T11:15:36.127Z,18.00
2017-10-12T11:18:03.903Z,17.70
2017-10-12T11:20:31.619Z,17.60
2017-10-12T11:22:59.384Z,17.50
2017-10-12T11:25:27.112Z,17.50
2017-10-12T11:27:54.895Z,17.50
2017-10-12T11:30:22.642Z,17.50
2017-10-12T11:32:50.295Z,17.50
2017-10-12T11:35:18.035Z,17.40
2017-10-12T11:37:45.775Z,17.20
2017-10-12T11:40:13.528Z,17.10
2017-10-12T11:42:41.275Z,17.00
2017-10-12T11:45:09.022Z,16.90
2017-10-12T11:47:36.898Z,16.90
2017-10-12T11:50:04.625Z,16.80
2017-10-12T11:52:32.368Z,16.70
2017-10-12T11:55:00.125Z,16.60
2017-10-12T11:57:27.864Z,16.50
2017-10-12T11:59:55.671Z,16.50
2017-10-12T12:02:23.315Z,16.50
2017-10-12T12:04:51.003Z,16.50
2017-10-12T12:07:18.792Z,16.50
2017-10-12T12:09:46.440Z,16.40
2017-10-12T12:12:14.078Z,16.40
2017-10-12T12:14:42.301Z,16.30
2017-10-12T12:17:10.047Z,16.30
2017-10-12T12:19:37.706Z,16.30
2017-10-12T12:22:05.443Z,16.30
2017-10-12T12:24:33.141Z,16.20
2017-10-12T12:27:00.851Z,16.20
2017-10-12T12:29:28.956Z,16.30
2017-10-12T12:31:56.625Z,16.30
2017-10-12T12:34:24.273Z,16.30
2017-10-12T12:36:52.176Z,16.30
2017-10-12T12:39:19.840Z,16.40
2017-10-12T12:41:47.520Z,16.40
2017-10-12T12:44:15.268Z,16.50
2017-10-12T12:46:43.017Z,16.50
2017-10-12T12:49:10.763Z,16.60
2017-10-12T12:51:38.556Z,16.60
2017-10-12T12:54:06.249Z,16.80
2017-10-12T12:56:34.091Z,17.00
2017-10-12T12:59:01.838Z,17.30
2017-10-12T13:01:29.529Z,17.40
2017-10-12T13:03:57.660Z,17.70
2017-10-12T13:06:25.379Z,17.70
2017-10-12T13:08:53.153Z,18.00
2017-10-12T13:11:20.828Z,18.40
2017-10-12T13:13:48.939Z,19.20
2017-10-12T13:16:16.598Z,19.20
2017-10-12T13:18:44.262Z,19.20
2017-10-12T13:21:11.990Z,19.10
2017-10-12T13:23:39.635Z,18.80
2017-10-12T13:26:07.311Z,18.60
2017-10-12T13:28:35.430Z,18.80
2017-10-12T13:31:03.118Z,18.80
2017-10-12T13:33:30.864Z,18.90
2017-10-12T13:35:58.985Z,18.70
2017-10-12T13:38:26.736Z,18.70
2017-10-12T13:40:54.484Z,18.50
2017-10-12T13:43:22.333Z,18.30
2017-10-12T13:45:49.988Z,18.20
2017-10-12T13:48:17.726Z,18.10
2017-10-12T13:50:45.432Z,17.90
2017-10-12T13:53:13.092Z,17.90
2017-10-12T13:55:40.761Z,17.90
2017-10-12T13:58:08.475Z,17.80
2017-10-12T14:00:36.220Z,17.80
2017-10-12T14:03:03.939Z,17.60
2017-10-12T14:05:31.853Z,17.50
2017-10-12T14:07:59.529Z,17.40
2017-10-12T14:10:27.249Z,17.30
2017-10-12T14:12:54.996Z,17.30
2017-10-12T14:15:22.767Z,17.30
2017-10-12T14:17:50.441Z,17.30
2017-10-12T14:20:18.243Z,17.30
2017-10-12T14:22:45.891Z,17.40
2017-10-12T14:25:13.628Z,17.40
2017-10-12T14:27:41.346Z,17.30
2017-10-12T14:30:09.012Z,17.30
2017-10-12T14:32:36.769Z,17.30
2017-10-12T14:35:04.565Z,17.30
2017-10-12T14:37:32.278Z,17.30
2017-10-12T14:39:59.966Z,17.20
2017-10-12T14:42:27.834Z,17.20
2017-10-12T14:44:55.474Z,17.10
2017-10-12T14:47:23.120Z,17.10
2017-10-12T14:49:51.104Z,17.10
2017-10-12T14:52:18.851Z,17.10
2017-10-12T14:54:46.496Z,17.10
2017-10-12T14:57:14.346Z,17.20
2017-10-12T14:59:42.047Z,17.30
2017-10-12T15:02:09.839Z,17.40
2017-10-12T15:04:37.690Z,17.40
2017-10-12T15:07:05.424Z,17.60
2017-10-12T15:09:33.160Z,17.70
2017-10-12T15:12:00.934Z,17.70
2017-10-12T15:14:28.596Z,17.70
2017-10-12T15:16:56.326Z,17.60
2017-10-12T15:19:24.031Z,17.40
2017-10-12T15:21:51.737Z,17.40
2017-10-12T15:24:19.796Z,17.20
2017-10-12T15:26:48.019Z,17.10
2017-10-12T15:29:15.724Z,17.20
2017-10-12T15:31:43.422Z,17.10
2017-10-12T15:34:11.478Z,17.00
2017-10-12T15:36:39.123Z,17.00
2017-10-12T15:39:06.802Z,16.90
2017-10-12T15:41:35.051Z,16.80
2017-10-12T15:44:03.179Z,16.70
2017-10-12T15:46:31.034Z,16.70
2017-10-12T15:48:58.783Z,16.60
2017-10-12T15:51:26.471Z,16.50
2017-10-12T15:53:54.122Z,16.40
2017-10-12T15:56:21.922Z,16.30
2017-10-12T15:58:49.580Z,16.30
2017-10-12T16:01:17.316Z,16.20
2017-10-12T16:03:45.164Z,16.20
2017-10-12T16:06:12.911Z,16.20
2017-10-12T16:08:40.559Z,16.10
2017-10-12T16:11:08.405Z,16.00
2017-10-12T16:13:36.152Z,16.00
2017-10-12T16:16:03.909Z,15.90
2017-10-12T16:18:31.894Z,15.90
2017-10-12T16:20:59.556Z,15.80
2017-10-12T16:23:27.220Z,15.80
2017-10-12T16:25:55.029Z,15.70
2017-10-12T16:28:23.088Z,15.60
2017-10-12T16:30:50.899Z,15.60
2017-10-12T16:33:19.593Z,15.50
2017-10-12T16:35:47.643Z,15.40
2017-10-12T16:38:15.692Z,15.30
2017-10-12T16:40:43.526Z,15.30
2017-10-12T16:43:11.187Z,15.30
2017-10-12T16:45:38.853Z,15.30
2017-10-12T16:48:07.088Z,15.20
2017-10-12T16:53:02.743Z,15.10
2017-10-12T16:55:30.493Z,15.10
2017-10-12T16:57:58.249Z,15.00
2017-10-12T17:00:25.914Z,14.90
2017-10-12T17:02:53.766Z,14.80
2017-10-12T17:05:21.517Z,14.80
2017-10-12T17:07:49.215Z,14.70
2017-10-12T17:10:17.007Z,14.70
2017-10-12T17:12:44.711Z,14.60
2017-10-12T17:15:12.501Z,14.50
2017-10-12T17:17:40.219Z,14.50
2017-10-12T17:20:07.995Z,14.40
2017-10-12T17:22:35.676Z,14.30
2017-10-12T17:25:03.483Z,14.30
2017-10-12T17:27:31.190Z,14.20
2017-10-12T17:29:58.865Z,14.30
2017-10-12T17:32:26.584Z,14.30
2017-10-12T17:34:54.226Z,14.20
2017-10-12T17:37:21.930Z,14.20
2017-10-12T17:39:49.661Z,14.20
2017-10-12T17:42:17.354Z,14.20
2017-10-12T17:44:45.324Z,14.10
2017-10-12T17:47:13.063Z,14.10
2017-10-12T17:49:40.763Z,14.10
2017-10-12T17:52:08.558Z,14.10
2017-10-12T17:54:36.347Z,14.10
2017-10-12T17:57:04.069Z,14.00
2017-10-12T17:59:31.780Z,14.00
2017-10-12T18:01:59.483Z,13.90
2017-10-12T18:06:55.280Z,13.80
2017-10-12T18:09:23.029Z,13.80
2017-10-12T18:14:18.497Z,13.70
2017-10-12T18:16:46.299Z,13.70
2017-10-12T18:19:13.975Z,13.70
2017-10-12T18:21:41.656Z,13.70
2017-10-12T18:24:09.441Z,13.70
2017-10-12T18:26:37.137Z,13.70
2017-10-12T18:29:04.791Z,13.70
2017-10-12T18:31:32.515Z,13.70
2017-10-12T18:34:00.377Z,13.70
2017-10-12T18:36:28.059Z,13.60
2017-10-12T18:38:56.151Z,13.60
2017-10-12T18:41:25.543Z,13.60
2017-10-12T18:43:54.566Z,13.50
2017-10-12T18:46:22.740Z,13.50
2017-10-12T18:48:50.790Z,13.40
2017-10-12T18:51:19.322Z,13.30
2017-10-12T18:53:47.023Z,13.30
2017-10-12T18:56:14.759Z,13.30
2017-10-12T18:58:42.446Z,13.20
2017-10-12T19:01:10.351Z,13.20
2017-10-12T19:03:38.079Z,13.20
2017-10-12T19:06:06.131Z,13.20
2017-10-12T19:08:34.026Z,13.20
2017-10-12T19:11:01.676Z,13.20
2017-10-12T19:13:29.331Z,13.20
2017-10-12T19:15:57.114Z,13.20
2017-10-12T19:18:24.767Z,13.30
2017-10-12T19:20:52.496Z,13.30
2017-10-12T19:23:20.311Z,13.30
2017-10-12T19:25:48.387Z,13.40
2017-10-12T19:30:44.152Z,13.50
2017-10-12T19:33:11.996Z,13.50
2017-10-12T19:38:08.412Z,13.60
2017-10-12T19:40:36.062Z,13.70
2017-10-12T19:43:04.011Z,13.80
2017-10-12T19:45:31.814Z,13.80
2017-10-12T19:48:00.384Z,13.90
2017-10-12T19:50:28.446Z,13.90
2017-10-12T19:52:56.285Z,13.90
2017-10-12T19:55:24.032Z,13.90
2017-10-12T19:57:51.780Z,13.90
2017-10-12T20:00:19.495Z,13.90
2017-10-12T20:02:47.545Z,13.90
2017-10-12T20:05:15.202Z,13.90
2017-10-12T20:07:43.817Z,13.90
2017-10-12T20:10:12.051Z,13.90
2017-10-12T20:12:39.798Z,13.90
2017-10-12T20:15:07.520Z,13.90
2017-10-12T20:17:35.178Z,13.90
2017-10-12T20:20:02.867Z,13.90
2017-10-12T20:22:31.199Z,13.90
2017-10-12T20:24:59.799Z,13.90
2017-10-12T20:27:27.867Z,13.80
2017-10-12T20:29:55.589Z,13.80
2017-10-12T20:32:23.242Z,13.80
2017-10-12T20:34:51.334Z,13.80
2017-10-12T20:37:19.035Z,13.80
2017-10-12T20:39:47.175Z,13.70
2017-10-12T20:42:14.922Z,13.80
2017-10-12T20:44:42.642Z,13.80
2017-10-12T20:47:10.331Z,13.70
2017-10-12T20:49:38.160Z,13.70
2017-10-12T20:54:33.479Z,13.70
2017-10-12T20:57:01.612Z,13.70
2017-10-12T20:59:29.317Z,13.70
2017-10-12T21:01:56.967Z,13.70
2017-10-12T21:04:24.626Z,13.70
2017-10-12T21:06:52.419Z,13.70
2017-10-12T21:09:20.473Z,13.60
2017-10-12T21:11:48.520Z,13.60
2017-10-12T21:14:16.235Z,13.60
2017-10-12T21:16:44.018Z,13.60
2017-10-12T21:19:12.142Z,13.50
2017-10-12T21:21:39.959Z,13.50
2017-10-12T21:24:07.744Z,13.50
2017-10-12T21:26:35.396Z,13.50
2017-10-12T21:29:03.259Z,13.40
2017-10-12T21:31:31.323Z,13.30
2017-10-12T21:33:59.384Z,13.30
2017-10-12T21:36:27.523Z,13.30
2017-10-12T21:38:55.171Z,13.30
2017-10-12T21:41:22.904Z,13.30
2017-10-12T21:43:50.607Z,13.30
2017-10-12T21:46:18.296Z,13.30
2017-10-12T21:48:45.941Z,13.30
2017-10-12T21:51:13.659Z,13.30
2017-10-12T21:53:41.340Z,13.20
2017-10-12T21:56:09.047Z,13.20
2017-10-12T21:58:36.878Z,13.20
2017-10-12T22:01:04.686Z,13.20
2017-10-12T22:03:32.344Z,13.30
2017-10-12T22:06:00.430Z,13.40
2017-10-12T22:08:28.111Z,13.40
2017-10-12T22:10:55.760Z,13.30
2017-10-12T22:13:23.476Z,13.30
2017-10-12T22:15:51.114Z,13.30
2017-10-12T22:18:18.762Z,13.30
2017-10-12T22:20:46.652Z,13.30
2017-10-12T22:23:14.320Z,13.20
2017-10-12T22:25:42.062Z,13.20
2017-10-12T22:28:09.810Z,13.10
2017-10-12T22:30:37.532Z,13.10
2017-10-12T22:33:05.191Z,13.10
2017-10-12T22:35:32.967Z,13.10
2017-10-12T22:38:00.623Z,13.10
2017-10-12T22:40:28.671Z,13.10
2017-10-12T22:42:56.460Z,13.10
2017-10-12T22:45:24.165Z,13.10
2017-10-12T22:47:51.864Z,13.10
2017-10-12T22:50:19.719Z,13.00
2017-10-12T22:52:47.398Z,12.90
2017-10-12T22:55:15.056Z,12.90
2017-10-12T22:57:42.754Z,12.90
2017-10-12T23:00:10.402Z,12.80
2017-10-12T23:02:38.116Z,12.80
2017-10-12T23:05:06.228Z,12.70
2017-10-12T23:07:33.875Z,12.70
2017-10-12T23:10:01.533Z,12.70
2017-10-12T23:12:29.286Z,12.60
2017-10-12T23:14:57.033Z,12.60
2017-10-12T23:17:24.689Z,12.60
2017-10-12T23:19:52.441Z,12.60
2017-10-12T23:22:20.237Z,12.70
2017-10-12T23:24:47.950Z,12.70
2017-10-12T23:27:16.298Z,12.70
2017-10-12T23:29:44.439Z,12.70
2017-10-12T23:32:12.082Z,12.70
2017-10-12T23:34:39.891Z,12.60
2017-10-12T23:37:07.555Z,12.60
2017-10-12T23:39:35.615Z,12.40
2017-10-12T23:42:03.771Z,12.40
2017-10-12T23:44:31.867Z,12.30
2017-10-12T23:46:59.543Z,12.30
2017-10-12T23:49:27.288Z,12.10
2017-10-12T23:51:55.036Z,12.00
2017-10-12T23:54:22.782Z,12.00
2017-10-12T23:56:50.574Z,11.90
2017-10-12T23:59:18.291Z,11.90
